Time;durP1;ratioP1;P1;durP2;ratioP2;P2;SDS_P1;SDS_P2;PMS_P1;PMS_P2;Temp;Humidity;BMP_temperature;BMP_pressure;BME280_temperature;BME280_humidity;BME280_pressure;Samples;Min_cycle;Max_cycle;Signal;HPM_P1;HPM_P2
2020/12/26 00:01:25;;;;;;;13.43;8.65;;;1.90;85.30;;;;;;5056212;28;20075;-78
2020/12/26 00:03:51;;;;;;;13.43;8.73;;;1.90;85.10;;;;;;5056193;28;20029;-77
2020/12/26 00:06:18;;;;;;;12.23;8.18;;;1.90;85.00;;;;;;5056126;28;20087;-77
2020/12/26 00:08:45;;;;;;;13.00;8.55;;;1.80;85.10;;;;;;5054556;28;20029;-77
2020/12/26 00:11:13;;;;;;;11.93;8.18;;;1.90;85.00;;;;;;5055873;28;20498;-77
2020/12/26 00:13:40;;;;;;;13.63;8.73;;;1.90;85.10;;;;;;5055879;28;20078;-78
2020/12/26 00:16:12;;;;;;;12.52;8.30;;;1.80;85.00;;;;;;5054401;28;20029;-77
2020/12/26 00:18:38;;;;;;;12.93;7.93;;;1.80;85.10;;;;;;5055941;28;20029;-77
2020/12/26 00:21:12;;;;;;;12.43;8.38;;;1.80;84.70;;;;;;5056098;28;20154;-77
2020/12/26 00:23:38;;;;;;;13.82;7.95;;;1.80;84.80;;;;;;5055987;28;20486;-79
2020/12/26 00:26:04;;;;;;;12.50;7.90;;;1.80;84.80;;;;;;5055599;28;20029;-78
2020/12/26 00:28:30;;;;;;;14.38;8.27;;;1.80;84.20;;;;;;5055730;28;20021;-78
2020/12/26 00:30:56;;;;;;;15.05;8.23;;;1.70;84.30;;;;;;5055372;28;20041;-78
2020/12/26 00:33:22;;;;;;;12.43;8.38;;;1.80;84.60;;;;;;5055660;28;20459;-77
2020/12/26 00:35:48;;;;;;;11.63;7.60;;;1.80;84.70;;;;;;5055547;28;20100;-77
2020/12/26 00:38:14;;;;;;;13.43;8.27;;;1.90;84.60;;;;;;5054180;28;20031;-77
2020/12/26 00:40:40;;;;;;;10.70;7.50;;;1.80;84.00;;;;;;5055430;28;20463;-78
2020/12/26 00:43:05;;;;;;;9.88;6.55;;;1.70;84.00;;;;;;5055397;28;20017;-77
2020/12/26 00:45:31;;;;;;;10.82;7.55;;;1.80;84.00;;;;;;5055357;28;20455;-78
2020/12/26 00:47:57;;;;;;;12.63;7.75;;;1.80;83.90;;;;;;5054031;28;20036;-77
2020/12/26 00:50:22;;;;;;;10.75;7.22;;;1.70;83.10;;;;;;5055163;28;20028;-77
2020/12/26 00:52:48;;;;;;;11.73;7.28;;;1.80;83.90;;;;;;5055349;28;20026;-78
2020/12/26 00:55:14;;;;;;;11.57;7.80;;;1.80;83.50;;;;;;5055089;28;20371;-77
2020/12/26 00:57:42;;;;;;;11.57;7.20;;;1.80;83.70;;;;;;5054981;28;20048;-77
2020/12/26 01:00:08;;;;;;;11.25;7.28;;;1.90;83.70;;;;;;5054782;28;20025;-77
2020/12/26 01:02:34;;;;;;;11.13;7.07;;;1.80;83.30;;;;;;5054940;28;20017;-77
2020/12/26 01:05:01;;;;;;;12.73;7.95;;;1.80;82.60;;;;;;5054879;28;20523;-78
2020/12/26 01:07:26;;;;;;;9.90;6.75;;;1.80;83.10;;;;;;5054885;28;20383;-77
2020/12/26 01:09:52;;;;;;;11.70;6.95;;;1.80;83.30;;;;;;5053565;28;20024;-78
2020/12/26 01:12:18;;;;;;;7.80;5.40;;;1.80;83.40;;;;;;5054649;28;20478;-78
2020/12/26 01:14:43;;;;;;;9.55;6.20;;;1.80;83.40;;;;;;5054814;28;20021;-77
2020/12/26 01:17:10;;;;;;;8.70;6.20;;;1.80;82.70;;;;;;5054382;28;20477;-78
2020/12/26 01:19:36;;;;;;;9.82;6.72;;;1.80;83.00;;;;;;5054558;28;20052;-78
2020/12/26 01:22:02;;;;;;;10.48;7.50;;;1.90;83.40;;;;;;5053958;28;20024;-78
2020/12/26 01:24:28;;;;;;;10.68;6.68;;;1.90;83.50;;;;;;5053967;28;20387;-78
2020/12/26 01:26:54;;;;;;;11.45;7.15;;;1.90;83.00;;;;;;5052432;28;20048;-77
2020/12/26 01:29:20;;;;;;;11.85;6.20;;;1.90;83.20;;;;;;5054554;28;20381;-78
2020/12/26 01:31:51;;;;;;;11.75;6.40;;;1.80;83.00;;;;;;5054188;28;20041;-80
2020/12/26 01:34:20;;;;;;;9.90;6.95;;;1.80;83.10;;;;;;5053165;28;20032;-79
2020/12/26 01:36:50;;;;;;;10.07;6.63;;;1.80;83.00;;;;;;5052755;28;20025;-78
2020/12/26 01:39:17;;;;;;;14.30;8.43;;;1.80;83.30;;;;;;5054414;28;20021;-78
2020/12/26 01:41:42;;;;;;;12.25;7.28;;;1.80;83.30;;;;;;5053034;28;20028;-77
2020/12/26 01:44:08;;;;;;;11.13;7.45;;;1.80;83.70;;;;;;5054165;28;20028;-78
2020/12/26 01:46:34;;;;;;;10.68;7.25;;;1.80;84.20;;;;;;5054096;28;20377;-78
2020/12/26 01:49:00;;;;;;;10.45;7.03;;;1.80;83.70;;;;;;5054070;28;20029;-78
2020/12/26 01:51:30;;;;;;;12.65;8.60;;;1.80;83.60;;;;;;5052928;28;20029;-78
2020/12/26 01:53:56;;;;;;;10.47;7.43;;;1.80;83.70;;;;;;5054056;28;20029;-78
2020/12/26 01:56:22;;;;;;;12.60;7.45;;;1.80;83.70;;;;;;5052727;28;20250;-78
2020/12/26 01:58:48;;;;;;;13.23;7.65;;;1.80;83.80;;;;;;5054396;28;20023;-78
2020/12/26 02:01:14;;;;;;;10.38;7.18;;;1.80;84.00;;;;;;5054111;28;20021;-78
2020/12/26 02:03:40;;;;;;;12.80;8.00;;;1.80;83.80;;;;;;5053979;28;20455;-78
2020/12/26 02:06:07;;;;;;;12.80;8.50;;;1.80;84.00;;;;;;5053618;28;20436;-77
2020/12/26 02:08:36;;;;;;;11.70;8.48;;;1.80;83.90;;;;;;5053870;28;20103;-77
2020/12/26 02:11:06;;;;;;;12.95;8.05;;;1.80;83.90;;;;;;5053722;28;20104;-78
2020/12/26 02:13:32;;;;;;;11.68;7.75;;;1.80;84.10;;;;;;5053889;28;20549;-78
2020/12/26 02:16:09;;;;;;;11.23;7.53;;;1.80;84.10;;;;;;5052557;28;20029;-77
2020/12/26 02:18:35;;;;;;;13.23;7.88;;;1.80;84.00;;;;;;5052010;28;20025;-78
2020/12/26 02:21:03;;;;;;;12.02;8.65;;;1.80;84.00;;;;;;5053631;28;20049;-77
2020/12/26 02:23:29;;;;;;;11.38;7.97;;;1.70;84.20;;;;;;5052489;28;20025;-79
2020/12/26 02:25:56;;;;;;;13.30;8.90;;;1.80;84.30;;;;;;5053471;28;20044;-79
2020/12/26 02:28:22;;;;;;;12.57;8.68;;;1.80;84.20;;;;;;5053637;28;20028;-78
2020/12/26 02:30:48;;;;;;;9.70;7.57;;;1.70;84.30;;;;;;5052095;28;20041;-78
2020/12/26 02:33:14;;;;;;;10.43;7.18;;;1.80;84.00;;;;;;5053630;28;20043;-79
2020/12/26 02:35:40;;;;;;;11.38;7.45;;;1.80;84.10;;;;;;5053537;28;20020;-78
2020/12/26 02:38:06;;;;;;;12.88;7.82;;;1.80;84.00;;;;;;5052545;28;20029;-78
2020/12/26 02:40:31;;;;;;;12.70;7.50;;;1.80;83.80;;;;;;5053464;28;20025;-78
2020/12/26 02:42:57;;;;;;;11.70;7.65;;;1.80;83.90;;;;;;5052208;28;20116;-78
2020/12/26 02:45:23;;;;;;;10.80;7.50;;;1.80;83.80;;;;;;5052141;28;20059;-78
2020/12/26 02:47:49;;;;;;;11.90;7.28;;;1.80;83.60;;;;;;5052154;28;20071;-79
2020/12/26 02:50:14;;;;;;;15.15;7.78;;;1.80;83.60;;;;;;5048997;28;20112;-79
2020/12/26 02:52:40;;;;;;;13.40;7.05;;;1.80;83.80;;;;;;5032207;28;20036;-79
2020/12/26 02:55:06;;;;;;;9.77;6.78;;;1.80;83.40;;;;;;5032191;28;20048;-78
2020/12/26 02:57:32;;;;;;;11.02;6.85;;;1.80;83.30;;;;;;5033776;28;20049;-79
2020/12/26 02:59:57;;;;;;;9.93;6.72;;;1.90;83.40;;;;;;5033615;28;20030;-79
2020/12/26 03:02:23;;;;;;;10.23;6.40;;;1.80;83.10;;;;;;5033355;28;20033;-79
2020/12/26 03:04:49;;;;;;;11.10;5.68;;;1.90;83.20;;;;;;5033530;28;20506;-79
2020/12/26 03:07:14;;;;;;;7.43;5.72;;;1.80;83.00;;;;;;5033669;28;20104;-79
2020/12/26 03:09:40;;;;;;;12.55;6.38;;;1.90;83.40;;;;;;5032020;28;20104;-81
2020/12/26 03:12:06;;;;;;;9.10;6.10;;;1.80;83.00;;;;;;5033511;28;20026;-79
2020/12/26 03:14:31;;;;;;;12.70;6.85;;;1.80;83.40;;;;;;5033325;28;20136;-79
2020/12/26 03:16:57;;;;;;;9.50;6.22;;;1.80;83.10;;;;;;5033331;28;20032;-79
2020/12/26 03:19:23;;;;;;;8.98;6.53;;;1.80;83.30;;;;;;5033287;28;20022;-79
2020/12/26 03:21:48;;;;;;;8.40;6.18;;;1.80;83.30;;;;;;5033176;28;20022;-79
2020/12/26 03:24:14;;;;;;;11.90;7.05;;;1.80;83.50;;;;;;5031990;28;20029;-79
2020/12/26 03:26:40;;;;;;;12.70;8.00;;;1.90;83.50;;;;;;5032915;28;20494;-79
2020/12/26 03:29:05;;;;;;;12.85;7.47;;;1.80;83.60;;;;;;5033049;28;20024;-79
2020/12/26 03:31:31;;;;;;;9.23;6.80;;;1.80;83.50;;;;;;5047490;28;20912;-78
2020/12/26 03:33:57;;;;;;;9.90;6.90;;;1.80;83.60;;;;;;5056825;28;20051;-78
2020/12/26 03:36:22;;;;;;;10.38;7.22;;;1.90;83.70;;;;;;5055542;28;20021;-79
2020/12/26 03:38:48;;;;;;;9.52;6.85;;;1.80;83.50;;;;;;5056729;28;20036;-78
2020/12/26 03:41:14;;;;;;;11.02;6.53;;;1.80;83.50;;;;;;5056994;28;20417;-78
2020/12/26 03:43:39;;;;;;;8.73;5.93;;;1.80;83.50;;;;;;5057279;28;20029;-79
2020/12/26 03:46:05;;;;;;;9.90;6.38;;;1.90;84.40;;;;;;5056680;28;20501;-78
2020/12/26 03:48:31;;;;;;;11.25;6.80;;;1.90;83.50;;;;;;5055237;28;20055;-78
2020/12/26 03:50:56;;;;;;;9.82;6.00;;;1.90;83.40;;;;;;5049162;28;20022;-78
2020/12/26 03:53:22;;;;;;;9.75;6.40;;;1.90;83.60;;;;;;5036594;28;20060;-79
2020/12/26 03:55:49;;;;;;;9.35;6.78;;;1.90;83.60;;;;;;5036415;28;20021;-79
2020/12/26 03:58:15;;;;;;;9.45;6.75;;;1.90;83.30;;;;;;5036732;28;20082;-78
2020/12/26 04:00:40;;;;;;;8.88;6.53;;;1.90;83.50;;;;;;5036664;28;20105;-78
2020/12/26 04:03:06;;;;;;;9.65;6.45;;;1.90;83.60;;;;;;5036752;28;20026;-79
2020/12/26 04:05:32;;;;;;;11.68;6.53;;;1.90;83.50;;;;;;5035017;28;20529;-78
2020/12/26 04:07:57;;;;;;;9.45;6.53;;;1.90;83.50;;;;;;5036249;28;20065;-78
2020/12/26 04:10:23;;;;;;;9.18;6.88;;;1.90;83.50;;;;;;5036053;28;20033;-79
2020/12/26 04:12:49;;;;;;;9.00;6.28;;;1.90;83.50;;;;;;5053099;28;20037;-79
2020/12/26 04:15:14;;;;;;;10.30;6.65;;;1.90;83.60;;;;;;5056146;28;20029;-79
2020/12/26 04:17:40;;;;;;;12.13;7.72;;;1.80;83.70;;;;;;5056409;28;20482;-80
2020/12/26 04:20:06;;;;;;;13.93;7.45;;;1.90;83.70;;;;;;5056105;28;20059;-79
2020/12/26 04:22:31;;;;;;;11.20;7.82;;;1.80;83.60;;;;;;5056006;28;20024;-79
2020/12/26 04:24:57;;;;;;;19.83;10.27;;;1.80;83.70;;;;;;5055933;28;20682;-79
2020/12/26 04:27:23;;;;;;;26.33;13.27;;;1.80;83.80;;;;;;5055759;28;20025;-79
2020/12/26 04:29:48;;;;;;;18.85;9.68;;;1.90;84.10;;;;;;5055571;28;20063;-80
2020/12/26 04:32:14;;;;;;;17.52;9.70;;;1.90;83.90;;;;;;5055582;28;20040;-80
2020/12/26 04:34:40;;;;;;;15.38;8.48;;;1.80;83.70;;;;;;5055962;28;20090;-80
2020/12/26 04:37:06;;;;;;;14.43;8.10;;;1.80;83.70;;;;;;5055562;28;20017;-80
2020/12/26 04:39:31;;;;;;;12.18;8.10;;;1.80;83.70;;;;;;5054352;28;20434;-79
2020/12/26 04:41:57;;;;;;;14.63;8.23;;;1.80;83.50;;;;;;5055108;28;20067;-79
2020/12/26 04:44:24;;;;;;;11.13;7.50;;;1.80;83.70;;;;;;5055419;28;20032;-80
2020/12/26 04:46:51;;;;;;;13.63;7.50;;;1.70;83.70;;;;;;5054754;28;20044;-79
2020/12/26 04:49:20;;;;;;;12.25;7.65;;;1.70;83.70;;;;;;5054023;28;20025;-80
2020/12/26 04:51:51;;;;;;;13.77;7.57;;;1.80;83.80;;;;;;5054019;28;20025;-79
2020/12/26 04:54:25;;;;;;;11.20;7.80;;;1.70;83.80;;;;;;5055608;28;20079;-79
2020/12/26 04:56:55;;;;;;;11.82;7.88;;;1.70;83.70;;;;;;5055354;28;20024;-79
2020/12/26 04:59:21;;;;;;;11.68;7.70;;;1.70;83.70;;;;;;5055226;28;20049;-79
2020/12/26 05:01:48;;;;;;;10.63;6.97;;;1.70;83.70;;;;;;5055591;28;20033;-79
2020/12/26 05:04:14;;;;;;;10.95;7.40;;;1.70;83.80;;;;;;5053861;28;20116;-79
2020/12/26 05:06:53;;;;;;;11.73;7.43;;;1.70;83.80;;;;;;5055047;28;20056;-79
2020/12/26 05:09:22;;;;;;;17.50;9.95;;;1.70;83.90;;;;;;5054981;28;20739;-79
2020/12/26 05:11:52;;;;;;;28.15;14.68;;;1.70;84.00;;;;;;5054933;28;20071;-79
2020/12/26 05:14:18;;;;;;;42.28;20.98;;;1.70;84.00;;;;;;5055301;28;20024;-80
2020/12/26 05:16:44;;;;;;;45.28;22.80;;;1.70;84.00;;;;;;5053674;28;20028;-79
2020/12/26 05:19:10;;;;;;;36.08;18.90;;;1.70;83.90;;;;;;5055185;28;20021;-79
2020/12/26 05:21:37;;;;;;;31.13;17.83;;;1.70;83.90;;;;;;5054547;28;20494;-78
2020/12/26 05:24:04;;;;;;;22.52;14.10;;;1.80;84.00;;;;;;5054819;28;20116;-82
2020/12/26 05:26:31;;;;;;;24.27;13.68;;;1.70;84.00;;;;;;5054862;28;20033;-79
2020/12/26 05:29:37;;;;;;;18.20;11.32;;;1.80;84.00;;;;;;5054554;28;20108;-79
2020/12/26 05:32:04;;;;;;;16.20;10.02;;;1.70;84.00;;;;;;5051766;28;20072;-79
2020/12/26 05:34:31;;;;;;;12.80;7.85;;;1.70;83.90;;;;;;5054608;28;20029;-78
2020/12/26 05:37:03;;;;;;;14.02;8.32;;;1.70;83.70;;;;;;5054597;28;20028;-78
2020/12/26 06:28:01;;;;;;;133.02;45.95;;;1.20;83.60;;;;;;5071573;28;20930;-81
2020/12/26 06:30:30;;;;;;;132.15;48.10;;;1.20;83.50;;;;;;5071209;28;20033;-83
2020/12/26 06:32:57;;;;;;;91.40;34.72;;;1.20;83.60;;;;;;5070682;28;20032;-83
2020/12/26 06:35:23;;;;;;;248.52;82.72;;;1.20;83.70;;;;;;5068971;28;20036;-83
2020/12/26 06:38:19;;;;;;;484.05;172.32;;;1.20;83.70;;;;;;5070654;28;20017;-83
2020/12/26 06:40:52;;;;;;;111.05;39.85;;;1.30;83.80;;;;;;5069423;28;20524;-84
2020/12/26 06:43:43;;;;;;;99.35;40.45;;;1.30;83.80;;;;;;5070561;28;20024;-83
2020/12/26 06:46:29;;;;;;;287.80;107.70;;;1.40;83.80;;;;;;5070473;28;20020;-84
2020/12/26 06:48:56;;;;;;;198.20;81.25;;;1.40;83.80;;;;;;5070743;28;20072;-81
2020/12/26 06:51:27;;;;;;;74.97;36.28;;;1.50;83.90;;;;;;5069320;28;20047;-82
2020/12/26 06:53:54;;;;;;;;;;;1.50;83.70;;;;;;5070910;28;20021;-75
2020/12/26 06:56:34;;;;;;;246.95;115.80;;;1.60;83.30;;;;;;5069538;28;20271;-76
2020/12/26 06:59:00;;;;;;;153.65;79.38;;;1.70;83.50;;;;;;5068667;28;20055;-77
2020/12/26 07:01:26;;;;;;;123.05;69.70;;;1.70;83.90;;;;;;5050280;28;20124;-76
2020/12/26 07:04:10;;;;;;;52.15;31.15;;;1.70;83.40;;;;;;5066748;28;20044;-77
2020/12/26 07:06:37;;;;;;;70.25;41.80;;;1.80;82.90;;;;;;5069891;28;20864;-77
2020/12/26 07:09:03;;;;;;;167.32;81.47;;;1.80;83.20;;;;;;5068648;28;20694;-78
2020/12/26 07:11:29;;;;;;;84.00;46.30;;;1.90;83.20;;;;;;5069922;28;20021;-84
2020/12/26 07:13:55;;;;;;;52.78;25.73;;;1.90;82.40;;;;;;5070326;28;20090;-79
2020/12/26 07:16:36;;;;;;;54.35;25.83;;;1.90;83.00;;;;;;5068414;28;20025;-79
2020/12/26 07:19:23;;;;;;;50.25;22.17;;;1.90;82.90;;;;;;5069791;28;20050;-80
2020/12/26 07:21:56;;;;;;;58.45;24.13;;;2.00;83.10;;;;;;5069684;28;20032;-80
2020/12/26 07:24:24;;;;;;;44.97;18.98;;;2.00;82.30;;;;;;5069780;28;20047;-80
2020/12/26 07:26:51;;;;;;;55.35;25.05;;;2.00;82.40;;;;;;5069334;28;20434;-80
2020/12/26 07:29:27;;;;;;;37.58;16.40;;;2.00;82.00;;;;;;5068226;28;20021;-80
2020/12/26 07:31:54;;;;;;;31.15;17.13;;;2.00;81.90;;;;;;5068032;28;20024;-80
2020/12/26 07:34:40;;;;;;;30.40;16.58;;;2.00;81.60;;;;;;5067981;28;20407;-81
2020/12/26 07:37:06;;;;;;;26.38;15.05;;;2.00;81.30;;;;;;5066026;28;20111;-79
2020/12/26 07:39:32;;;;;;;26.38;15.27;;;2.00;81.90;;;;;;5055917;28;20035;-80
2020/12/26 07:41:58;;;;;;;28.65;16.25;;;2.00;81.80;;;;;;5056311;28;20025;-79
2020/12/26 07:44:28;;;;;;;24.25;14.38;;;2.00;82.10;;;;;;5056375;28;20032;-80
2020/12/26 07:46:55;;;;;;;16.27;10.63;;;2.00;81.70;;;;;;5056052;28;20021;-80
2020/12/26 07:49:21;;;;;;;18.20;12.48;;;2.00;81.20;;;;;;5056147;28;20096;-79
2020/12/26 07:52:07;;;;;;;18.73;10.77;;;2.10;81.90;;;;;;5055143;28;20434;-79
2020/12/26 07:54:34;;;;;;;25.83;11.82;;;2.10;81.10;;;;;;5056336;28;20028;-79
2020/12/26 07:57:00;;;;;;;15.73;9.02;;;2.10;80.90;;;;;;5054638;28;20025;-79
2020/12/26 07:59:26;;;;;;;29.92;15.02;;;2.10;80.60;;;;;;5054681;28;20036;-78
2020/12/26 08:01:53;;;;;;;33.50;15.02;;;2.30;80.90;;;;;;5055862;28;20032;-79
2020/12/26 08:04:20;;;;;;;21.58;10.60;;;2.30;80.60;;;;;;5055866;28;20391;-79
2020/12/26 08:06:47;;;;;;;12.73;6.47;;;2.30;80.60;;;;;;5055830;28;20159;-80
2020/12/26 08:09:14;;;;;;;14.27;7.45;;;2.20;79.40;;;;;;5055708;28;20467;-80
2020/12/26 08:11:41;;;;;;;16.10;6.63;;;2.30;79.70;;;;;;5055672;28;20029;-78
2020/12/26 08:14:07;;;;;;;17.83;9.30;;;2.30;79.40;;;;;;5054329;28;20029;-79
2020/12/26 08:16:34;;;;;;;12.80;8.18;;;2.30;80.00;;;;;;5055626;28;20032;-79
2020/12/26 08:19:04;;;;;;;14.93;9.05;;;2.40;79.90;;;;;;5055337;28;20039;-79
2020/12/26 08:21:31;;;;;;;15.53;7.77;;;2.40;79.30;;;;;;5055714;28;20052;-80
2020/12/26 08:23:59;;;;;;;11.10;7.28;;;2.40;78.60;;;;;;5056041;28;20250;-79
2020/12/26 08:26:30;;;;;;;18.30;10.00;;;2.40;79.50;;;;;;5053845;28;20048;-79
2020/12/26 08:29:06;;;;;;;15.15;8.10;;;2.40;79.10;;;;;;5055365;28;20425;-79
2020/12/26 08:31:35;;;;;;;14.68;7.05;;;2.50;78.90;;;;;;5055423;28;20075;-80
2020/12/26 08:34:07;;;;;;;10.07;6.60;;;2.50;77.40;;;;;;5055197;28;20028;-80
2020/12/26 08:36:38;;;;;;;9.40;6.05;;;2.40;77.40;;;;;;5055391;28;20171;-79
2020/12/26 08:39:04;;;;;;;;;;;2.50;78.40;;;;;;5055626;28;20017;-79
2020/12/26 08:41:32;;;;;;;15.02;7.43;;;2.50;77.00;;;;;;5055137;28;20274;-79
2020/12/26 08:43:58;;;;;;;12.40;7.32;;;2.40;77.70;;;;;;5053875;28;20074;-79
2020/12/26 08:46:26;;;;;;;15.18;12.00;;;2.40;78.10;;;;;;5054970;28;20033;-77
2020/12/26 08:48:55;;;;;;;16.88;10.25;;;2.50;78.50;;;;;;5054320;28;20025;-78
2020/12/26 08:51:25;;;;;;;14.27;9.32;;;2.60;78.40;;;;;;5054926;28;20017;-78
2020/12/26 08:53:52;;;;;;;20.58;14.73;;;2.60;76.80;;;;;;5054783;28;20029;-78
2020/12/26 08:56:38;;;;;;;16.92;8.75;;;2.60;76.80;;;;;;5054992;28;20107;-78
2020/12/26 08:59:04;;;;;;;18.05;8.60;;;2.60;76.30;;;;;;5054812;28;20017;-77
2020/12/26 09:01:30;;;;;;;12.98;7.88;;;2.60;76.80;;;;;;5053420;28;20036;-79
2020/12/26 09:03:57;;;;;;;13.85;7.28;;;2.70;77.00;;;;;;5054748;28;20032;-79
2020/12/26 09:06:43;;;;;;;10.43;7.45;;;2.60;75.40;;;;;;5054613;28;20025;-78
2020/12/26 09:09:22;;;;;;;12.93;9.07;;;2.70;76.40;;;;;;5054601;28;20017;-77
2020/12/26 09:12:00;;;;;;;12.20;7.03;;;2.70;75.80;;;;;;5054587;28;20032;-79
2020/12/26 09:14:26;;;;;;;9.70;7.32;;;2.60;74.70;;;;;;5054485;28;20063;-78
2020/12/26 09:16:59;;;;;;;13.43;8.82;;;2.60;75.50;;;;;;5053115;28;20025;-77
2020/12/26 09:19:26;;;;;;;12.48;7.50;;;2.50;74.90;;;;;;5054732;28;20379;-77
2020/12/26 09:22:03;;;;;;;20.13;8.88;;;2.50;75.60;;;;;;5054402;28;20025;-77
2020/12/26 09:24:30;;;;;;;14.40;8.88;;;2.50;76.30;;;;;;5054597;28;20486;-78
2020/12/26 09:26:56;;;;;;;9.35;6.97;;;2.50;75.40;;;;;;5054133;28;20514;-77
2020/12/26 09:29:23;;;;;;;13.45;8.77;;;2.60;75.40;;;;;;5052662;28;20103;-78
2020/12/26 09:31:50;;;;;;;9.43;7.05;;;2.50;73.90;;;;;;5052823;28;20043;-78
2020/12/26 09:34:17;;;;;;;8.25;5.63;;;2.50;73.70;;;;;;5054176;28;20018;-77
2020/12/26 09:36:43;;;;;;;9.23;6.43;;;2.50;74.30;;;;;;5052632;28;20028;-77
2020/12/26 09:39:09;;;;;;;7.65;5.88;;;2.50;73.70;;;;;;5054203;28;20025;-77
2020/12/26 09:42:01;;;;;;;6.07;5.28;;;2.50;73.60;;;;;;5054171;28;20104;-76
2020/12/26 09:44:27;;;;;;;8.43;5.88;;;2.60;74.30;;;;;;5053023;28;20040;-77
2020/12/26 09:46:58;;;;;;;8.93;5.75;;;2.60;72.10;;;;;;5052592;28;20383;-77
2020/12/26 09:49:23;;;;;;;7.53;5.43;;;2.60;72.80;;;;;;5053942;28;20096;-77
2020/12/26 09:51:49;;;;;;;8.05;6.40;;;2.60;72.10;;;;;;5052654;28;20112;-77
2020/12/26 09:54:15;;;;;;;6.70;5.57;;;2.60;70.60;;;;;;5053636;28;20025;-77
2020/12/26 09:56:41;;;;;;;6.60;5.45;;;2.60;69.30;;;;;;5053504;28;20044;-77
2020/12/26 09:59:06;;;;;;;8.32;6.10;;;2.60;70.70;;;;;;5054093;28;20078;-77
2020/12/26 10:01:34;;;;;;;9.23;6.82;;;2.50;69.50;;;;;;5053938;28;20020;-77
2020/12/26 10:04:00;;;;;;;9.98;5.95;;;2.60;71.00;;;;;;5052429;28;20482;-77
2020/12/26 10:06:26;;;;;;;9.23;5.95;;;2.60;71.40;;;;;;5053500;28;20029;-78
2020/12/26 10:08:52;;;;;;;8.18;6.18;;;2.70;71.80;;;;;;5053606;28;20033;-77
2020/12/26 10:11:19;;;;;;;8.50;6.75;;;2.70;72.10;;;;;;5053722;28;20032;-78
2020/12/26 10:13:46;;;;;;;9.38;7.60;;;2.70;71.00;;;;;;5053766;28;20060;-78
2020/12/26 10:16:14;;;;;;;9.55;6.63;;;2.70;71.20;;;;;;5053501;28;20017;-78
2020/12/26 10:18:40;;;;;;;10.82;5.78;;;2.80;70.40;;;;;;5053471;28;20036;-77
2020/12/26 10:21:06;;;;;;;11.48;7.55;;;2.80;70.30;;;;;;5053468;28;20029;-78
2020/12/26 10:23:31;;;;;;;8.65;6.60;;;2.90;70.70;;;;;;5053419;28;20391;-77
2020/12/26 10:26:07;;;;;;;12.50;8.73;;;2.90;69.60;;;;;;5053119;28;20139;-76
2020/12/26 10:28:33;;;;;;;13.95;8.50;;;3.00;69.80;;;;;;5053438;28;20017;-77
2020/12/26 10:30:59;;;;;;;9.43;6.38;;;3.00;69.50;;;;;;5053274;28;20021;-77
2020/12/26 10:33:26;;;;;;;12.77;8.13;;;3.10;69.60;;;;;;5053378;28;20028;-77
2020/12/26 10:35:51;;;;;;;9.40;6.13;;;3.10;68.50;;;;;;5053548;28;20043;-77
2020/12/26 10:38:17;;;;;;;7.93;5.55;;;3.10;68.50;;;;;;5053267;28;20025;-77
2020/12/26 10:40:43;;;;;;;8.30;5.43;;;3.10;68.00;;;;;;5053514;28;20048;-78
2020/12/26 10:43:09;;;;;;;7.60;5.20;;;3.10;68.30;;;;;;5052016;28;20471;-79
2020/12/26 10:45:34;;;;;;;6.18;4.72;;;3.10;67.50;;;;;;5053138;28;20029;-78
2020/12/26 10:48:00;;;;;;;8.60;5.32;;;3.10;67.60;;;;;;5053279;28;20027;-80
2020/12/26 10:50:26;;;;;;;6.85;5.47;;;3.20;67.70;;;;;;5053251;28;20025;-76
2020/12/26 10:52:51;;;;;;;10.88;6.30;;;3.20;66.50;;;;;;5053223;28;20108;-77
2020/12/26 10:55:18;;;;;;;6.03;4.68;;;3.20;66.80;;;;;;5053446;28;20029;-78
2020/12/26 10:57:43;;;;;;;6.60;4.60;;;3.20;67.50;;;;;;5053419;28;20025;-76
2020/12/26 11:00:10;;;;;;;9.52;7.70;;;3.20;66.90;;;;;;5053282;28;20348;-78
2020/12/26 11:02:36;;;;;;;8.43;6.40;;;3.30;67.80;;;;;;5053293;28;20104;-78
2020/12/26 11:05:04;;;;;;;8.95;7.18;;;3.30;67.50;;;;;;5052737;28;20112;-77
2020/12/26 11:07:29;;;;;;;5.22;4.35;;;3.40;67.20;;;;;;5051602;28;20364;-79
2020/12/26 11:09:55;;;;;;;6.50;4.65;;;3.30;66.20;;;;;;5051767;28;20032;-77
2020/12/26 11:12:21;;;;;;;5.88;4.80;;;3.30;66.40;;;;;;5053513;28;20021;-77
2020/12/26 11:14:47;;;;;;;6.03;4.57;;;3.30;67.20;;;;;;5056620;28;20064;-78
2020/12/26 11:17:13;;;;;;;7.47;4.70;;;3.30;67.10;;;;;;5056806;28;20057;-78
2020/12/26 11:19:40;;;;;;;6.55;4.68;;;3.30;67.30;;;;;;5056716;28;20108;-78
2020/12/26 11:22:05;;;;;;;8.57;4.90;;;3.20;67.40;;;;;;5057241;28;20459;-77
2020/12/26 11:24:31;;;;;;;10.32;5.90;;;3.20;67.60;;;;;;5056492;28;20033;-79
2020/12/26 11:26:57;;;;;;;11.50;5.57;;;3.30;68.00;;;;;;5056360;28;20041;-78
2020/12/26 11:29:22;;;;;;;6.30;4.50;;;3.30;68.20;;;;;;5056487;28;20881;-78
2020/12/26 11:31:49;;;;;;;6.30;4.68;;;3.40;67.70;;;;;;5056352;28;20467;-78
2020/12/26 11:34:15;;;;;;;7.30;4.88;;;3.40;67.90;;;;;;5056412;28;20021;-78
2020/12/26 11:36:41;;;;;;;5.32;4.28;;;3.40;68.00;;;;;;5056253;28;20150;-78
2020/12/26 11:39:08;;;;;;;6.25;4.88;;;3.50;67.80;;;;;;5055359;28;20021;-79
2020/12/26 11:41:34;;;;;;;8.35;5.28;;;3.50;67.80;;;;;;5054925;28;20025;-77
2020/12/26 11:44:00;;;;;;;5.03;4.13;;;3.60;67.50;;;;;;5055244;28;20052;-77
2020/12/26 11:46:26;;;;;;;6.18;4.47;;;3.60;66.80;;;;;;5056287;28;20037;-76
2020/12/26 11:48:52;;;;;;;4.85;3.80;;;3.60;65.30;;;;;;5056170;28;20018;-77
2020/12/26 11:51:18;;;;;;;5.70;3.67;;;3.60;65.90;;;;;;5056136;28;20070;-78
2020/12/26 11:53:44;;;;;;;4.25;3.65;;;3.60;65.90;;;;;;5056027;28;20099;-77
2020/12/26 11:56:12;;;;;;;5.70;4.05;;;3.60;65.90;;;;;;5055918;28;20029;-77
2020/12/26 11:58:39;;;;;;;8.98;5.55;;;3.70;66.80;;;;;;5055875;28;20043;-77
2020/12/26 12:01:05;;;;;;;6.22;4.53;;;3.70;66.60;;;;;;5055825;28;20021;-77
2020/12/26 12:03:32;;;;;;;5.63;3.80;;;3.70;66.70;;;;;;5054583;28;20395;-78
2020/12/26 12:05:58;;;;;;;6.32;4.68;;;3.70;67.10;;;;;;5055579;28;20025;-78
2020/12/26 12:08:24;;;;;;;11.15;7.63;;;3.80;66.70;;;;;;5056194;28;20053;-77
2020/12/26 12:10:50;;;;;;;8.27;5.70;;;3.80;67.10;;;;;;5055821;28;20482;-77
2020/12/26 12:13:16;;;;;;;10.35;6.68;;;3.80;66.80;;;;;;5056171;28;20034;-77
2020/12/26 12:15:42;;;;;;;10.48;6.97;;;3.80;66.40;;;;;;5055861;28;20054;-77
2020/12/26 12:18:08;;;;;;;16.23;7.38;;;3.80;67.50;;;;;;5055763;28;20406;-77
2020/12/26 12:20:34;;;;;;;13.18;8.73;;;3.80;67.20;;;;;;5055493;28;20550;-77
2020/12/26 12:23:01;;;;;;;14.85;7.53;;;3.80;67.10;;;;;;5055298;28;20028;-77
2020/12/26 12:25:27;;;;;;;16.48;9.60;;;3.80;67.70;;;;;;5055035;28;20021;-78
2020/12/26 12:27:54;;;;;;;14.75;9.35;;;3.70;67.00;;;;;;5055722;28;20024;-78
2020/12/26 12:30:21;;;;;;;19.65;11.52;;;3.70;67.70;;;;;;5054100;28;20036;-77
2020/12/26 12:32:47;;;;;;;15.25;9.40;;;3.70;68.00;;;;;;5055500;28;20520;-77
2020/12/26 12:35:13;;;;;;;15.27;9.05;;;3.70;68.20;;;;;;5054309;28;20020;-77
2020/12/26 12:37:39;;;;;;;9.98;6.82;;;3.70;68.40;;;;;;5054025;28;20052;-77
2020/12/26 12:40:06;;;;;;;14.73;8.88;;;3.70;68.90;;;;;;5055225;28;20096;-77
2020/12/26 12:42:32;;;;;;;15.82;8.60;;;3.70;68.00;;;;;;5055344;28;20487;-78
2020/12/26 12:44:58;;;;;;;11.23;6.53;;;3.70;68.50;;;;;;5055203;28;20044;-78
2020/12/26 12:47:27;;;;;;;11.00;7.18;;;3.70;68.40;;;;;;5054988;28;20413;-78
2020/12/26 12:49:53;;;;;;;11.95;7.40;;;3.70;68.60;;;;;;5052965;28;20053;-78
2020/12/26 12:52:20;;;;;;;13.85;7.85;;;3.70;68.40;;;;;;5054955;28;20024;-77
2020/12/26 12:54:46;;;;;;;11.20;6.25;;;3.70;68.30;;;;;;5053636;28;20470;-77
2020/12/26 12:57:11;;;;;;;10.27;6.82;;;3.70;68.30;;;;;;5054970;28;20055;-77
2020/12/26 12:59:41;;;;;;;12.85;7.22;;;3.60;68.50;;;;;;5055196;28;20032;-77
2020/12/26 13:02:11;;;;;;;14.02;7.80;;;3.60;68.70;;;;;;5054817;28;20017;-77
2020/12/26 13:04:38;;;;;;;12.68;7.05;;;3.60;69.00;;;;;;5053558;28;20115;-77
2020/12/26 13:07:04;;;;;;;14.88;7.03;;;3.60;69.10;;;;;;5054526;28;20029;-77
2020/12/26 13:09:30;;;;;;;12.70;7.80;;;3.60;69.40;;;;;;5053972;28;20029;-77
2020/12/26 13:11:56;;;;;;;15.23;8.38;;;3.60;69.00;;;;;;5054643;28;20407;-77
2020/12/26 13:14:21;;;;;;;16.45;9.20;;;3.50;69.30;;;;;;5054483;28;20029;-77
2020/12/26 13:16:47;;;;;;;19.25;10.30;;;3.40;69.40;;;;;;5053169;28;20024;-77
2020/12/26 13:19:13;;;;;;;36.92;15.43;;;3.40;70.00;;;;;;5054467;28;20401;-77
2020/12/26 13:21:39;;;;;;;38.50;17.27;;;3.40;70.30;;;;;;5054437;28;20056;-78
2020/12/26 13:24:05;;;;;;;38.17;16.20;;;3.30;70.50;;;;;;5054340;28;20502;-77
2020/12/26 13:26:31;;;;;;;30.20;14.50;;;3.30;70.70;;;;;;5054070;28;20053;-77
2020/12/26 13:28:57;;;;;;;22.02;12.05;;;3.20;70.90;;;;;;5054433;28;20025;-77
2020/12/26 13:31:27;;;;;;;25.02;12.40;;;3.20;71.20;;;;;;5054297;28;20051;-77
2020/12/26 13:33:54;;;;;;;22.63;12.70;;;3.10;71.50;;;;;;5054233;28;20074;-77
2020/12/26 13:36:20;;;;;;;22.83;13.18;;;3.10;71.90;;;;;;5053799;28;20031;-77
2020/12/26 13:38:46;;;;;;;26.25;15.00;;;3.00;71.90;;;;;;5054043;28;20028;-77